sensor_id;sensor_type;location;lat;lon;timestamp;P1;durP1;ratioP1;P2;durP2;ratioP2
36189;SDS011;22232;50.914;13.858;2023-01-28T00:00:52;305.10;;;51.50;;
36189;SDS011;22232;50.914;13.858;2023-01-28T00:03:20;452.35;;;59.67;;
36189;SDS011;22232;50.914;13.858;2023-01-28T00:05:48;429.20;;;57.97;;
36189;SDS011;22232;50.914;13.858;2023-01-28T00:08:16;574.22;;;71.93;;
36189;SDS011;22232;50.914;13.858;2023-01-28T00:10:43;393.60;;;54.13;;
36189;SDS011;22232;50.914;13.858;2023-01-28T00:13:11;509.73;;;65.45;;
36189;SDS011;22232;50.914;13.858;2023-01-28T00:15:40;651.80;;;76.28;;
36189;SDS011;22232;50.914;13.858;2023-01-28T00:18:08;508.48;;;61.30;;
36189;SDS011;22232;50.914;13.858;2023-01-28T00:20:36;566.85;;;67.40;;
36189;SDS011;22232;50.914;13.858;2023-01-28T00:23:03;676.25;;;76.18;;
36189;SDS011;22232;50.914;13.858;2023-01-28T00:25:31;327.05;;;49.35;;
36189;SDS011;22232;50.914;13.858;2023-01-28T00:27:59;375.23;;;51.65;;
36189;SDS011;22232;50.914;13.858;2023-01-28T00:30:26;543.17;;;59.47;;
36189;SDS011;22232;50.914;13.858;2023-01-28T00:32:55;710.97;;;79.90;;
36189;SDS011;22232;50.914;13.858;2023-01-28T00:35:22;231.63;;;41.33;;
36189;SDS011;22232;50.914;13.858;2023-01-28T00:37:50;727.80;;;77.50;;
36189;SDS011;22232;50.914;13.858;2023-01-28T00:40:18;574.08;;;64.70;;
36189;SDS011;22232;50.914;13.858;2023-01-28T00:42:46;372.50;;;49.58;;
36189;SDS011;22232;50.914;13.858;2023-01-28T00:45:13;311.88;;;44.60;;
36189;SDS011;22232;50.914;13.858;2023-01-28T00:47:41;281.08;;;42.15;;
36189;SDS011;22232;50.914;13.858;2023-01-28T00:50:11;158.82;;;33.78;;
36189;SDS011;22232;50.914;13.858;2023-01-28T00:52:39;297.88;;;42.95;;
36189;SDS011;22232;50.914;13.858;2023-01-28T00:55:07;316.55;;;46.42;;
36189;SDS011;22232;50.914;13.858;2023-01-28T00:57:34;538.40;;;59.45;;
36189;SDS011;22232;50.914;13.858;2023-01-28T01:00:02;278.58;;;41.13;;
36189;SDS011;22232;50.914;13.858;2023-01-28T01:02:31;375.65;;;47.75;;
36189;SDS011;22232;50.914;13.858;2023-01-28T01:04:59;422.50;;;50.75;;
36189;SDS011;22232;50.914;13.858;2023-01-28T01:07:27;690.13;;;70.07;;
36189;SDS011;22232;50.914;13.858;2023-01-28T01:10:12;709.88;;;69.22;;
36189;SDS011;22232;50.914;13.858;2023-01-28T01:12:42;667.38;;;66.38;;
36189;SDS011;22232;50.914;13.858;2023-01-28T01:15:12;838.47;;;78.75;;
36189;SDS011;22232;50.914;13.858;2023-01-28T01:17:41;733.90;;;71.32;;
36189;SDS011;22232;50.914;13.858;2023-01-28T01:20:11;789.65;;;77.38;;
36189;SDS011;22232;50.914;13.858;2023-01-28T01:22:41;882.35;;;80.68;;
36189;SDS011;22232;50.914;13.858;2023-01-28T01:25:09;894.80;;;86.32;;
36189;SDS011;22232;50.914;13.858;2023-01-28T01:27:40;975.33;;;93.57;;
36189;SDS011;22232;50.914;13.858;2023-01-28T01:30:08;886.92;;;85.18;;
36189;SDS011;22232;50.914;13.858;2023-01-28T01:32:36;726.80;;;71.85;;
36189;SDS011;22232;50.914;13.858;2023-01-28T01:35:05;703.58;;;69.22;;
36189;SDS011;22232;50.914;13.858;2023-01-28T01:37:34;537.15;;;59.58;;
36189;SDS011;22232;50.914;13.858;2023-01-28T01:40:03;562.38;;;56.60;;
36189;SDS011;22232;50.914;13.858;2023-01-28T01:42:31;663.38;;;66.60;;
36189;SDS011;22232;50.914;13.858;2023-01-28T01:45:02;604.38;;;62.30;;
36189;SDS011;22232;50.914;13.858;2023-01-28T01:50:38;498.05;;;53.10;;
36189;SDS011;22232;50.914;13.858;2023-01-28T01:53:13;250.27;;;37.38;;
36189;SDS011;22232;50.914;13.858;2023-01-28T01:55:47;74.93;;;25.20;;
36189;SDS011;22232;50.914;13.858;2023-01-28T01:58:19;83.75;;;27.40;;
36189;SDS011;22232;50.914;13.858;2023-01-28T02:00:50;68.93;;;23.88;;
36189;SDS011;22232;50.914;13.858;2023-01-28T02:03:18;76.10;;;25.75;;
36189;SDS011;22232;50.914;13.858;2023-01-28T02:05:55;70.28;;;25.10;;
36189;SDS011;22232;50.914;13.858;2023-01-28T02:08:22;79.90;;;26.77;;
36189;SDS011;22232;50.914;13.858;2023-01-28T02:10:52;74.65;;;27.15;;
36189;SDS011;22232;50.914;13.858;2023-01-28T02:13:26;73.00;;;26.23;;
36189;SDS011;22232;50.914;13.858;2023-01-28T02:15:59;70.93;;;25.85;;
36189;SDS011;22232;50.914;13.858;2023-01-28T02:18:28;72.35;;;25.40;;
36189;SDS011;22232;50.914;13.858;2023-01-28T02:29:43;77.28;;;27.48;;
36189;SDS011;22232;50.914;13.858;2023-01-28T02:32:42;74.38;;;27.20;;
36189;SDS011;22232;50.914;13.858;2023-01-28T02:35:17;87.28;;;27.98;;
36189;SDS011;22232;50.914;13.858;2023-01-28T02:37:53;78.10;;;26.60;;
36189;SDS011;22232;50.914;13.858;2023-01-28T02:40:31;69.25;;;25.63;;
36189;SDS011;22232;50.914;13.858;2023-01-28T02:43:41;77.47;;;27.38;;
36189;SDS011;22232;50.914;13.858;2023-01-28T02:49:17;80.45;;;28.70;;
36189;SDS011;22232;50.914;13.858;2023-01-28T02:51:58;77.93;;;27.45;;
36189;SDS011;22232;50.914;13.858;2023-01-28T02:54:44;85.53;;;29.08;;
36189;SDS011;22232;50.914;13.858;2023-01-28T03:00:09;90.85;;;31.30;;
36189;SDS011;22232;50.914;13.858;2023-01-28T03:02:41;84.80;;;30.58;;
36189;SDS011;22232;50.914;13.858;2023-01-28T03:07:48;101.03;;;33.72;;
36189;SDS011;22232;50.914;13.858;2023-01-28T03:10:18;98.50;;;32.25;;
36189;SDS011;22232;50.914;13.858;2023-01-28T03:12:48;90.57;;;31.58;;
36189;SDS011;22232;50.914;13.858;2023-01-28T03:15:40;102.38;;;32.80;;
36189;SDS011;22232;50.914;13.858;2023-01-28T03:18:45;94.45;;;33.72;;
36189;SDS011;22232;50.914;13.858;2023-01-28T03:21:37;91.32;;;31.42;;
36189;SDS011;22232;50.914;13.858;2023-01-28T03:24:34;86.43;;;31.25;;
36189;SDS011;22232;50.914;13.858;2023-01-28T03:30:19;87.13;;;31.67;;
36189;SDS011;22232;50.914;13.858;2023-01-28T03:33:22;93.05;;;31.80;;
36189;SDS011;22232;50.914;13.858;2023-01-28T03:36:10;72.97;;;29.48;;
36189;SDS011;22232;50.914;13.858;2023-01-28T03:38:56;83.25;;;30.02;;
36189;SDS011;22232;50.914;13.858;2023-01-28T03:41:25;81.50;;;29.75;;
36189;SDS011;22232;50.914;13.858;2023-01-28T03:43:54;76.40;;;28.35;;
36189;SDS011;22232;50.914;13.858;2023-01-28T03:46:22;82.22;;;29.38;;
36189;SDS011;22232;50.914;13.858;2023-01-28T03:48:50;83.78;;;30.67;;
36189;SDS011;22232;50.914;13.858;2023-01-28T03:51:18;77.35;;;28.48;;
36189;SDS011;22232;50.914;13.858;2023-01-28T03:53:46;81.60;;;29.02;;
36189;SDS011;22232;50.914;13.858;2023-01-28T03:56:14;77.10;;;28.25;;
36189;SDS011;22232;50.914;13.858;2023-01-28T03:58:45;71.30;;;28.05;;
36189;SDS011;22232;50.914;13.858;2023-01-28T04:03:47;80.68;;;28.85;;
36189;SDS011;22232;50.914;13.858;2023-01-28T04:06:21;83.97;;;29.83;;
36189;SDS011;22232;50.914;13.858;2023-01-28T04:09:09;78.03;;;28.45;;
36189;SDS011;22232;50.914;13.858;2023-01-28T04:11:54;70.40;;;28.20;;
36189;SDS011;22232;50.914;13.858;2023-01-28T04:14:28;69.88;;;26.98;;
36189;SDS011;22232;50.914;13.858;2023-01-28T04:17:09;65.18;;;26.67;;
36189;SDS011;22232;50.914;13.858;2023-01-28T04:19:38;66.18;;;26.88;;
36189;SDS011;22232;50.914;13.858;2023-01-28T04:22:09;69.43;;;27.10;;
36189;SDS011;22232;50.914;13.858;2023-01-28T04:24:39;68.93;;;27.25;;
36189;SDS011;22232;50.914;13.858;2023-01-28T04:27:06;84.32;;;31.65;;
36189;SDS011;22232;50.914;13.858;2023-01-28T04:29:34;80.30;;;29.13;;
36189;SDS011;22232;50.914;13.858;2023-01-28T04:32:37;84.18;;;29.83;;
36189;SDS011;22232;50.914;13.858;2023-01-28T04:35:23;78.30;;;28.15;;
36189;SDS011;22232;50.914;13.858;2023-01-28T04:38:18;82.28;;;30.52;;
36189;SDS011;22232;50.914;13.858;2023-01-28T04:40:53;73.65;;;28.27;;
36189;SDS011;22232;50.914;13.858;2023-01-28T04:43:26;85.57;;;30.58;;
36189;SDS011;22232;50.914;13.858;2023-01-28T04:46:12;96.00;;;31.83;;
36189;SDS011;22232;50.914;13.858;2023-01-28T04:48:50;257.35;;;43.00;;
36189;SDS011;22232;50.914;13.858;2023-01-28T04:51:17;240.13;;;40.70;;
36189;SDS011;22232;50.914;13.858;2023-01-28T04:54:14;382.77;;;49.38;;
36189;SDS011;22232;50.914;13.858;2023-01-28T04:56:42;143.55;;;31.67;;
36189;SDS011;22232;50.914;13.858;2023-01-28T04:59:10;243.32;;;39.55;;
36189;SDS011;22232;50.914;13.858;2023-01-28T05:01:38;543.05;;;61.53;;
36189;SDS011;22232;50.914;13.858;2023-01-28T05:04:06;213.60;;;37.92;;
36189;SDS011;22232;50.914;13.858;2023-01-28T05:06:37;286.38;;;43.03;;
36189;SDS011;22232;50.914;13.858;2023-01-28T05:09:11;123.30;;;31.55;;
36189;SDS011;22232;50.914;13.858;2023-01-28T05:11:40;211.35;;;36.83;;
36189;SDS011;22232;50.914;13.858;2023-01-28T05:14:07;415.92;;;49.83;;
36189;SDS011;22232;50.914;13.858;2023-01-28T05:16:42;123.50;;;32.60;;
36189;SDS011;22232;50.914;13.858;2023-01-28T05:19:11;90.30;;;27.33;;
36189;SDS011;22232;50.914;13.858;2023-01-28T05:24:35;83.22;;;28.02;;
36189;SDS011;22232;50.914;13.858;2023-01-28T05:27:04;84.63;;;29.10;;
36189;SDS011;22232;50.914;13.858;2023-01-28T05:29:32;74.28;;;27.30;;
36189;SDS011;22232;50.914;13.858;2023-01-28T05:31:59;78.20;;;27.38;;
36189;SDS011;22232;50.914;13.858;2023-01-28T05:34:28;59.33;;;24.88;;
36189;SDS011;22232;50.914;13.858;2023-01-28T05:36:58;54.67;;;23.15;;
36189;SDS011;22232;50.914;13.858;2023-01-28T05:39:35;54.30;;;21.27;;
36189;SDS011;22232;50.914;13.858;2023-01-28T05:42:04;50.92;;;21.80;;
36189;SDS011;22232;50.914;13.858;2023-01-28T05:44:34;45.95;;;20.40;;
36189;SDS011;22232;50.914;13.858;2023-01-28T05:47:28;44.75;;;20.17;;
36189;SDS011;22232;50.914;13.858;2023-01-28T05:50:25;43.45;;;19.42;;
36189;SDS011;22232;50.914;13.858;2023-01-28T05:53:15;52.40;;;21.35;;
36189;SDS011;22232;50.914;13.858;2023-01-28T05:55:50;41.08;;;18.52;;
36189;SDS011;22232;50.914;13.858;2023-01-28T05:58:19;39.92;;;16.90;;
36189;SDS011;22232;50.914;13.858;2023-01-28T06:00:47;45.00;;;19.98;;
36189;SDS011;22232;50.914;13.858;2023-01-28T06:03:19;43.25;;;20.95;;
36189;SDS011;22232;50.914;13.858;2023-01-28T06:05:47;50.33;;;21.42;;
36189;SDS011;22232;50.914;13.858;2023-01-28T06:08:15;46.47;;;21.52;;
36189;SDS011;22232;50.914;13.858;2023-01-28T06:10:42;42.80;;;20.20;;
36189;SDS011;22232;50.914;13.858;2023-01-28T06:13:10;36.90;;;19.30;;
36189;SDS011;22232;50.914;13.858;2023-01-28T06:15:57;40.88;;;19.75;;
36189;SDS011;22232;50.914;13.858;2023-01-28T06:18:57;32.92;;;16.13;;
36189;SDS011;22232;50.914;13.858;2023-01-28T06:21:25;29.13;;;14.98;;
36189;SDS011;22232;50.914;13.858;2023-01-28T06:23:57;29.70;;;15.13;;
36189;SDS011;22232;50.914;13.858;2023-01-28T06:26:24;30.58;;;14.63;;
36189;SDS011;22232;50.914;13.858;2023-01-28T06:28:52;32.35;;;15.93;;
36189;SDS011;22232;50.914;13.858;2023-01-28T06:31:20;29.70;;;16.08;;
36189;SDS011;22232;50.914;13.858;2023-01-28T06:33:47;32.88;;;15.80;;
36189;SDS011;22232;50.914;13.858;2023-01-28T06:36:15;28.50;;;15.40;;
36189;SDS011;22232;50.914;13.858;2023-01-28T06:38:42;25.23;;;15.32;;
36189;SDS011;22232;50.914;13.858;2023-01-28T06:41:10;31.27;;;15.52;;
36189;SDS011;22232;50.914;13.858;2023-01-28T06:43:44;29.33;;;14.50;;
36189;SDS011;22232;50.914;13.858;2023-01-28T06:46:12;26.15;;;14.90;;
36189;SDS011;22232;50.914;13.858;2023-01-28T06:48:40;23.40;;;14.38;;
36189;SDS011;22232;50.914;13.858;2023-01-28T06:51:07;23.83;;;13.00;;
36189;SDS011;22232;50.914;13.858;2023-01-28T06:53:35;23.42;;;13.50;;
36189;SDS011;22232;50.914;13.858;2023-01-28T06:56:02;22.80;;;12.52;;
36189;SDS011;22232;50.914;13.858;2023-01-28T06:58:30;28.80;;;13.95;;
36189;SDS011;22232;50.914;13.858;2023-01-28T07:00:57;26.55;;;13.48;;
36189;SDS011;22232;50.914;13.858;2023-01-28T07:03:25;23.30;;;13.18;;
36189;SDS011;22232;50.914;13.858;2023-01-28T07:05:53;20.42;;;12.63;;
36189;SDS011;22232;50.914;13.858;2023-01-28T07:08:20;25.88;;;14.23;;
36189;SDS011;22232;50.914;13.858;2023-01-28T07:10:47;21.65;;;11.05;;
36189;SDS011;22232;50.914;13.858;2023-01-28T07:13:15;21.27;;;10.88;;
36189;SDS011;22232;50.914;13.858;2023-01-28T07:15:43;20.10;;;9.80;;
36189;SDS011;22232;50.914;13.858;2023-01-28T07:18:10;19.40;;;10.05;;
36189;SDS011;22232;50.914;13.858;2023-01-28T07:20:38;24.90;;;11.18;;
36189;SDS011;22232;50.914;13.858;2023-01-28T07:23:05;20.25;;;11.15;;
36189;SDS011;22232;50.914;13.858;2023-01-28T07:25:33;21.05;;;11.10;;
36189;SDS011;22232;50.914;13.858;2023-01-28T07:28:00;19.63;;;10.55;;
36189;SDS011;22232;50.914;13.858;2023-01-28T07:30:28;17.55;;;10.30;;
36189;SDS011;22232;50.914;13.858;2023-01-28T07:32:56;18.75;;;11.00;;
36189;SDS011;22232;50.914;13.858;2023-01-28T07:35:25;18.33;;;11.40;;
36189;SDS011;22232;50.914;13.858;2023-01-28T07:37:54;18.83;;;11.10;;
36189;SDS011;22232;50.914;13.858;2023-01-28T07:40:23;20.00;;;11.60;;
36189;SDS011;22232;50.914;13.858;2023-01-28T07:42:51;17.58;;;10.57;;
36189;SDS011;22232;50.914;13.858;2023-01-28T07:45:22;15.88;;;8.43;;
36189;SDS011;22232;50.914;13.858;2023-01-28T07:47:55;19.20;;;10.15;;
36189;SDS011;22232;50.914;13.858;2023-01-28T07:50:24;18.30;;;9.30;;
36189;SDS011;22232;50.914;13.858;2023-01-28T07:52:52;11.02;;;6.38;;
36189;SDS011;22232;50.914;13.858;2023-01-28T07:55:20;15.48;;;8.93;;
36189;SDS011;22232;50.914;13.858;2023-01-28T08:00:17;18.05;;;8.45;;
36189;SDS011;22232;50.914;13.858;2023-01-28T08:02:46;25.35;;;12.13;;
36189;SDS011;22232;50.914;13.858;2023-01-28T08:05:15;22.17;;;10.52;;
36189;SDS011;22232;50.914;13.858;2023-01-28T08:07:47;13.27;;;7.37;;
36189;SDS011;22232;50.914;13.858;2023-01-28T08:10:15;12.93;;;7.68;;
36189;SDS011;22232;50.914;13.858;2023-01-28T08:12:51;20.85;;;10.70;;
36189;SDS011;22232;50.914;13.858;2023-01-28T08:15:19;12.27;;;7.88;;
36189;SDS011;22232;50.914;13.858;2023-01-28T08:17:47;16.45;;;8.43;;
36189;SDS011;22232;50.914;13.858;2023-01-28T08:20:15;14.13;;;8.63;;
36189;SDS011;22232;50.914;13.858;2023-01-28T08:22:43;17.27;;;9.77;;
36189;SDS011;22232;50.914;13.858;2023-01-28T08:25:11;19.63;;;9.95;;
36189;SDS011;22232;50.914;13.858;2023-01-28T08:27:39;22.75;;;10.60;;
36189;SDS011;22232;50.914;13.858;2023-01-28T08:30:07;16.30;;;8.32;;
36189;SDS011;22232;50.914;13.858;2023-01-28T08:32:36;10.88;;;6.63;;
36189;SDS011;22232;50.914;13.858;2023-01-28T08:35:04;10.48;;;6.53;;
36189;SDS011;22232;50.914;13.858;2023-01-28T08:37:33;8.30;;;5.97;;
36189;SDS011;22232;50.914;13.858;2023-01-28T08:40:01;16.52;;;6.45;;
36189;SDS011;22232;50.914;13.858;2023-01-28T08:42:29;8.80;;;5.70;;
36189;SDS011;22232;50.914;13.858;2023-01-28T08:44:56;10.52;;;6.07;;
36189;SDS011;22232;50.914;13.858;2023-01-28T08:47:24;10.93;;;6.05;;
36189;SDS011;22232;50.914;13.858;2023-01-28T08:49:51;11.63;;;6.65;;
36189;SDS011;22232;50.914;13.858;2023-01-28T08:52:19;13.65;;;5.78;;
36189;SDS011;22232;50.914;13.858;2023-01-28T08:54:46;9.73;;;6.47;;
36189;SDS011;22232;50.914;13.858;2023-01-28T08:57:14;10.20;;;6.05;;
36189;SDS011;22232;50.914;13.858;2023-01-28T08:59:41;12.57;;;6.43;;
36189;SDS011;22232;50.914;13.858;2023-01-28T09:02:12;10.27;;;6.63;;
36189;SDS011;22232;50.914;13.858;2023-01-28T09:04:56;11.10;;;7.25;;
36189;SDS011;22232;50.914;13.858;2023-01-28T09:07:24;11.55;;;6.45;;
36189;SDS011;22232;50.914;13.858;2023-01-28T09:09:52;16.63;;;8.10;;
36189;SDS011;22232;50.914;13.858;2023-01-28T09:12:19;9.63;;;6.55;;
36189;SDS011;22232;50.914;13.858;2023-01-28T09:14:47;10.63;;;6.68;;
36189;SDS011;22232;50.914;13.858;2023-01-28T09:17:14;10.70;;;5.70;;
36189;SDS011;22232;50.914;13.858;2023-01-28T09:19:42;9.32;;;5.60;;
36189;SDS011;22232;50.914;13.858;2023-01-28T09:22:09;9.07;;;5.75;;
36189;SDS011;22232;50.914;13.858;2023-01-28T09:24:37;14.10;;;6.00;;
36189;SDS011;22232;50.914;13.858;2023-01-28T09:27:05;10.63;;;5.20;;
36189;SDS011;22232;50.914;13.858;2023-01-28T09:29:33;8.75;;;5.28;;
36189;SDS011;22232;50.914;13.858;2023-01-28T09:32:01;12.18;;;6.20;;
36189;SDS011;22232;50.914;13.858;2023-01-28T09:34:29;7.50;;;5.10;;
36189;SDS011;22232;50.914;13.858;2023-01-28T09:36:56;6.43;;;4.53;;
36189;SDS011;22232;50.914;13.858;2023-01-28T09:39:24;5.95;;;4.65;;
36189;SDS011;22232;50.914;13.858;2023-01-28T09:49:58;8.38;;;5.20;;
36189;SDS011;22232;50.914;13.858;2023-01-28T09:52:29;9.50;;;5.13;;
36189;SDS011;22232;50.914;13.858;2023-01-28T09:55:04;10.73;;;6.53;;
36189;SDS011;22232;50.914;13.858;2023-01-28T09:57:52;13.88;;;6.30;;
36189;SDS011;22232;50.914;13.858;2023-01-28T10:00:22;11.15;;;6.30;;
36189;SDS011;22232;50.914;13.858;2023-01-28T10:11:13;8.32;;;4.10;;
36189;SDS011;22232;50.914;13.858;2023-01-28T10:19:06;10.20;;;5.45;;
36189;SDS011;22232;50.914;13.858;2023-01-28T10:21:54;12.93;;;5.32;;
36189;SDS011;22232;50.914;13.858;2023-01-28T10:27:18;11.38;;;6.00;;
36189;SDS011;22232;50.914;13.858;2023-01-28T10:29:48;9.20;;;5.32;;
36189;SDS011;22232;50.914;13.858;2023-01-28T10:32:22;11.75;;;5.68;;
36189;SDS011;22232;50.914;13.858;2023-01-28T10:34:56;10.35;;;5.70;;
36189;SDS011;22232;50.914;13.858;2023-01-28T10:37:31;10.65;;;6.07;;
36189;SDS011;22232;50.914;13.858;2023-01-28T10:40:02;12.77;;;6.20;;
36189;SDS011;22232;50.914;13.858;2023-01-28T10:42:32;10.43;;;6.60;;
36189;SDS011;22232;50.914;13.858;2023-01-28T10:45:02;13.00;;;5.82;;
36189;SDS011;22232;50.914;13.858;2023-01-28T10:47:40;12.70;;;6.90;;
36189;SDS011;22232;50.914;13.858;2023-01-28T10:50:22;11.45;;;7.05;;
36189;SDS011;22232;50.914;13.858;2023-01-28T10:57:00;10.90;;;5.93;;
36189;SDS011;22232;50.914;13.858;2023-01-28T10:59:31;9.38;;;5.63;;
36189;SDS011;22232;50.914;13.858;2023-01-28T11:05:04;8.37;;;5.57;;
36189;SDS011;22232;50.914;13.858;2023-01-28T11:07:41;7.80;;;5.07;;
36189;SDS011;22232;50.914;13.858;2023-01-28T11:12:58;7.40;;;4.47;;
36189;SDS011;22232;50.914;13.858;2023-01-28T11:15:28;10.88;;;5.90;;
36189;SDS011;22232;50.914;13.858;2023-01-28T11:17:56;8.48;;;4.22;;
36189;SDS011;22232;50.914;13.858;2023-01-28T11:20:27;8.95;;;5.15;;
36189;SDS011;22232;50.914;13.858;2023-01-28T11:22:57;11.35;;;6.57;;
36189;SDS011;22232;50.914;13.858;2023-01-28T11:27:52;11.00;;;5.18;;
36189;SDS011;22232;50.914;13.858;2023-01-28T11:30:25;5.25;;;3.70;;
36189;SDS011;22232;50.914;13.858;2023-01-28T11:35:40;9.27;;;4.20;;
36189;SDS011;22232;50.914;13.858;2023-01-28T11:38:17;9.00;;;4.70;;
36189;SDS011;22232;50.914;13.858;2023-01-28T11:40:50;6.88;;;4.45;;
36189;SDS011;22232;50.914;13.858;2023-01-28T11:43:22;13.75;;;4.55;;
36189;SDS011;22232;50.914;13.858;2023-01-28T12:08:03;6.75;;;4.30;;
36189;SDS011;22232;50.914;13.858;2023-01-28T12:10:47;5.22;;;3.83;;
36189;SDS011;22232;50.914;13.858;2023-01-28T12:32:12;9.07;;;3.53;;
36189;SDS011;22232;50.914;13.858;2023-01-28T12:40:42;7.60;;;4.18;;
36189;SDS011;22232;50.914;13.858;2023-01-28T12:49:02;17.48;;;6.22;;
36189;SDS011;22232;50.914;13.858;2023-01-28T12:51:33;4.45;;;3.10;;
36189;SDS011;22232;50.914;13.858;2023-01-28T12:56:59;5.13;;;2.95;;
36189;SDS011;22232;50.914;13.858;2023-01-28T12:59:31;7.70;;;3.50;;
36189;SDS011;22232;50.914;13.858;2023-01-28T13:02:16;5.10;;;3.08;;
36189;SDS011;22232;50.914;13.858;2023-01-28T13:07:55;3.88;;;2.97;;
36189;SDS011;22232;50.914;13.858;2023-01-28T13:10:43;3.92;;;2.83;;
36189;SDS011;22232;50.914;13.858;2023-01-28T13:13:14;8.88;;;3.67;;
36189;SDS011;22232;50.914;13.858;2023-01-28T13:15:46;7.13;;;4.10;;
36189;SDS011;22232;50.914;13.858;2023-01-28T13:20:59;6.43;;;3.70;;
36189;SDS011;22232;50.914;13.858;2023-01-28T13:26:24;6.30;;;4.18;;
36189;SDS011;22232;50.914;13.858;2023-01-28T13:29:17;7.85;;;3.28;;
36189;SDS011;22232;50.914;13.858;2023-01-28T13:31:51;6.97;;;3.47;;
36189;SDS011;22232;50.914;13.858;2023-01-28T13:34:34;14.73;;;4.60;;
36189;SDS011;22232;50.914;13.858;2023-01-28T13:37:15;17.10;;;9.55;;
36189;SDS011;22232;50.914;13.858;2023-01-28T13:40:20;8.40;;;5.15;;
36189;SDS011;22232;50.914;13.858;2023-01-28T13:43:01;7.50;;;4.38;;
36189;SDS011;22232;50.914;13.858;2023-01-28T13:45:31;9.93;;;5.28;;
36189;SDS011;22232;50.914;13.858;2023-01-28T13:48:01;11.75;;;4.63;;
36189;SDS011;22232;50.914;13.858;2023-01-28T13:50:57;8.00;;;3.67;;
36189;SDS011;22232;50.914;13.858;2023-01-28T13:53:39;6.15;;;4.25;;
36189;SDS011;22232;50.914;13.858;2023-01-28T13:56:17;8.20;;;3.92;;
36189;SDS011;22232;50.914;13.858;2023-01-28T14:04:43;6.25;;;4.07;;
36189;SDS011;22232;50.914;13.858;2023-01-28T14:10:32;9.30;;;4.63;;
36189;SDS011;22232;50.914;13.858;2023-01-28T14:13:24;6.85;;;4.00;;
36189;SDS011;22232;50.914;13.858;2023-01-28T14:18:49;7.00;;;3.92;;
36189;SDS011;22232;50.914;13.858;2023-01-28T14:21:18;7.78;;;3.75;;
36189;SDS011;22232;50.914;13.858;2023-01-28T14:23:49;7.03;;;4.00;;
36189;SDS011;22232;50.914;13.858;2023-01-28T14:26:22;9.95;;;3.42;;
36189;SDS011;22232;50.914;13.858;2023-01-28T14:31:57;7.15;;;4.22;;
36189;SDS011;22232;50.914;13.858;2023-01-28T14:34:31;8.75;;;4.32;;
36189;SDS011;22232;50.914;13.858;2023-01-28T14:37:03;20.55;;;6.88;;
36189;SDS011;22232;50.914;13.858;2023-01-28T14:39:40;8.23;;;4.18;;
36189;SDS011;22232;50.914;13.858;2023-01-28T14:45:01;10.80;;;5.60;;
36189;SDS011;22232;50.914;13.858;2023-01-28T14:47:39;7.80;;;3.90;;
36189;SDS011;22232;50.914;13.858;2023-01-28T14:55:23;7.50;;;4.22;;
36189;SDS011;22232;50.914;13.858;2023-01-28T14:58:10;10.10;;;5.35;;
36189;SDS011;22232;50.914;13.858;2023-01-28T15:00:53;8.75;;;5.13;;
36189;SDS011;22232;50.914;13.858;2023-01-28T15:03:22;8.45;;;5.97;;
36189;SDS011;22232;50.914;13.858;2023-01-28T15:11:32;6.80;;;3.80;;
36189;SDS011;22232;50.914;13.858;2023-01-28T15:14:02;7.95;;;3.78;;
36189;SDS011;22232;50.914;13.858;2023-01-28T15:16:32;9.68;;;4.88;;
36189;SDS011;22232;50.914;13.858;2023-01-28T15:19:01;11.85;;;4.80;;
36189;SDS011;22232;50.914;13.858;2023-01-28T15:21:29;9.43;;;5.55;;
36189;SDS011;22232;50.914;13.858;2023-01-28T15:23:57;10.48;;;6.05;;
36189;SDS011;22232;50.914;13.858;2023-01-28T15:26:27;11.43;;;5.25;;
36189;SDS011;22232;50.914;13.858;2023-01-28T15:28:57;10.68;;;5.30;;
36189;SDS011;22232;50.914;13.858;2023-01-28T15:31:32;12.02;;;6.43;;
36189;SDS011;22232;50.914;13.858;2023-01-28T15:34:11;10.90;;;5.10;;
36189;SDS011;22232;50.914;13.858;2023-01-28T15:36:40;7.85;;;5.03;;
36189;SDS011;22232;50.914;13.858;2023-01-28T15:39:18;10.45;;;5.20;;
36189;SDS011;22232;50.914;13.858;2023-01-28T15:41:48;9.07;;;4.90;;
36189;SDS011;22232;50.914;13.858;2023-01-28T15:44:18;9.75;;;5.28;;
36189;SDS011;22232;50.914;13.858;2023-01-28T15:47:04;8.35;;;5.25;;
36189;SDS011;22232;50.914;13.858;2023-01-28T15:49:43;9.40;;;4.88;;
36189;SDS011;22232;50.914;13.858;2023-01-28T15:52:14;6.65;;;4.15;;
36189;SDS011;22232;50.914;13.858;2023-01-28T15:54:44;9.60;;;5.18;;
36189;SDS011;22232;50.914;13.858;2023-01-28T15:59:47;6.53;;;3.65;;
36189;SDS011;22232;50.914;13.858;2023-01-28T16:02:23;5.82;;;3.25;;
36189;SDS011;22232;50.914;13.858;2023-01-28T16:04:54;6.40;;;3.80;;
36189;SDS011;22232;50.914;13.858;2023-01-28T16:07:41;6.03;;;3.83;;
36189;SDS011;22232;50.914;13.858;2023-01-28T16:10:18;7.63;;;3.95;;
36189;SDS011;22232;50.914;13.858;2023-01-28T16:12:48;8.00;;;3.72;;
36189;SDS011;22232;50.914;13.858;2023-01-28T16:15:20;6.53;;;3.53;;
36189;SDS011;22232;50.914;13.858;2023-01-28T16:17:51;8.82;;;3.65;;
36189;SDS011;22232;50.914;13.858;2023-01-28T16:20:21;5.32;;;2.78;;
36189;SDS011;22232;50.914;13.858;2023-01-28T16:22:53;4.50;;;2.63;;
36189;SDS011;22232;50.914;13.858;2023-01-28T16:25:25;4.82;;;3.33;;
36189;SDS011;22232;50.914;13.858;2023-01-28T16:27:58;6.28;;;3.08;;
36189;SDS011;22232;50.914;13.858;2023-01-28T16:30:28;6.30;;;2.95;;
36189;SDS011;22232;50.914;13.858;2023-01-28T16:32:56;5.35;;;2.80;;
36189;SDS011;22232;50.914;13.858;2023-01-28T16:35:27;5.72;;;2.92;;
36189;SDS011;22232;50.914;13.858;2023-01-28T16:38:16;6.57;;;3.40;;
36189;SDS011;22232;50.914;13.858;2023-01-28T16:40:45;9.05;;;3.20;;
36189;SDS011;22232;50.914;13.858;2023-01-28T16:43:14;4.97;;;3.17;;
36189;SDS011;22232;50.914;13.858;2023-01-28T16:45:42;6.80;;;3.63;;
36189;SDS011;22232;50.914;13.858;2023-01-28T16:48:11;5.15;;;3.00;;
36189;SDS011;22232;50.914;13.858;2023-01-28T16:50:39;5.00;;;2.58;;
36189;SDS011;22232;50.914;13.858;2023-01-28T16:56:05;6.75;;;3.67;;
36189;SDS011;22232;50.914;13.858;2023-01-28T16:58:55;5.15;;;2.60;;
36189;SDS011;22232;50.914;13.858;2023-01-28T17:01:23;7.22;;;3.42;;
36189;SDS011;22232;50.914;13.858;2023-01-28T17:03:51;8.23;;;3.50;;
36189;SDS011;22232;50.914;13.858;2023-01-28T17:06:19;7.57;;;3.35;;
36189;SDS011;22232;50.914;13.858;2023-01-28T17:08:46;5.85;;;2.90;;
36189;SDS011;22232;50.914;13.858;2023-01-28T17:11:14;9.15;;;4.45;;
36189;SDS011;22232;50.914;13.858;2023-01-28T17:13:42;10.52;;;4.07;;
36189;SDS011;22232;50.914;13.858;2023-01-28T17:16:09;11.60;;;4.80;;
36189;SDS011;22232;50.914;13.858;2023-01-28T17:18:37;10.98;;;4.30;;
36189;SDS011;22232;50.914;13.858;2023-01-28T17:21:04;12.77;;;5.22;;
36189;SDS011;22232;50.914;13.858;2023-01-28T17:23:35;11.35;;;4.32;;
36189;SDS011;22232;50.914;13.858;2023-01-28T17:26:07;9.23;;;4.55;;
36189;SDS011;22232;50.914;13.858;2023-01-28T17:28:36;12.02;;;4.80;;
36189;SDS011;22232;50.914;13.858;2023-01-28T17:31:07;7.40;;;3.83;;
36189;SDS011;22232;50.914;13.858;2023-01-28T17:33:39;5.80;;;3.47;;
36189;SDS011;22232;50.914;13.858;2023-01-28T17:36:07;6.28;;;4.07;;